sensor_id;sensor_type;location;lat;lon;timestamp;temperature;humidity
3202;DHT22;34843;48.744;8.958;2024-01-30T00:00:42;0.90;99.90
3202;DHT22;34843;48.744;8.958;2024-01-30T00:03:07;0.90;99.90
3202;DHT22;34843;48.744;8.958;2024-01-30T00:05:33;0.90;99.90
3202;DHT22;34843;48.744;8.958;2024-01-30T00:07:58;1.00;99.90
3202;DHT22;34843;48.744;8.958;2024-01-30T00:10:23;0.90;99.90
3202;DHT22;34843;48.744;8.958;2024-01-30T00:12:49;1.00;99.90
3202;DHT22;34843;48.744;8.958;2024-01-30T00:15:14;0.90;99.90
3202;DHT22;34843;48.744;8.958;2024-01-30T00:17:40;0.90;99.90
3202;DHT22;34843;48.744;8.958;2024-01-30T00:20:06;0.90;99.90
3202;DHT22;34843;48.744;8.958;2024-01-30T00:22:32;0.80;99.90
3202;DHT22;34843;48.744;8.958;2024-01-30T00:24:58;0.90;99.90
3202;DHT22;34843;48.744;8.958;2024-01-30T00:27:23;0.90;99.90
3202;DHT22;34843;48.744;8.958;2024-01-30T00:29:49;0.90;99.90
3202;DHT22;34843;48.744;8.958;2024-01-30T00:32:14;0.90;99.90
3202;DHT22;34843;48.744;8.958;2024-01-30T00:34:41;0.80;99.90
3202;DHT22;34843;48.744;8.958;2024-01-30T00:37:07;0.80;99.90
3202;DHT22;34843;48.744;8.958;2024-01-30T00:39:32;0.80;99.90
3202;DHT22;34843;48.744;8.958;2024-01-30T00:41:58;0.80;99.90
3202;DHT22;34843;48.744;8.958;2024-01-30T00:44:23;0.90;99.90
3202;DHT22;34843;48.744;8.958;2024-01-30T00:46:49;0.90;99.90
3202;DHT22;34843;48.744;8.958;2024-01-30T00:49:14;0.90;99.90
3202;DHT22;34843;48.744;8.958;2024-01-30T00:51:40;0.90;99.90
3202;DHT22;34843;48.744;8.958;2024-01-30T00:54:05;0.90;99.90
3202;DHT22;34843;48.744;8.958;2024-01-30T00:56:31;0.90;99.90
3202;DHT22;34843;48.744;8.958;2024-01-30T00:58:57;0.90;99.90
3202;DHT22;34843;48.744;8.958;2024-01-30T01:01:22;0.90;99.90
3202;DHT22;34843;48.744;8.958;2024-01-30T01:03:48;0.90;99.90
3202;DHT22;34843;48.744;8.958;2024-01-30T01:06:14;0.90;99.90
3202;DHT22;34843;48.744;8.958;2024-01-30T01:08:39;0.90;99.90
3202;DHT22;34843;48.744;8.958;2024-01-30T01:11:05;0.90;99.90
3202;DHT22;34843;48.744;8.958;2024-01-30T01:13:31;0.90;99.90
3202;DHT22;34843;48.744;8.958;2024-01-30T01:15:56;0.90;99.90
3202;DHT22;34843;48.744;8.958;2024-01-30T01:18:21;0.90;99.90
3202;DHT22;34843;48.744;8.958;2024-01-30T01:20:47;0.80;99.90
3202;DHT22;34843;48.744;8.958;2024-01-30T01:23:13;0.80;99.90
3202;DHT22;34843;48.744;8.958;2024-01-30T01:25:38;0.80;99.90
3202;DHT22;34843;48.744;8.958;2024-01-30T01:28:04;0.80;99.90
3202;DHT22;34843;48.744;8.958;2024-01-30T01:30:29;0.90;99.90
3202;DHT22;34843;48.744;8.958;2024-01-30T01:32:55;0.80;99.90
3202;DHT22;34843;48.744;8.958;2024-01-30T01:35:25;0.70;99.90
3202;DHT22;34843;48.744;8.958;2024-01-30T01:37:52;0.80;99.90
3202;DHT22;34843;48.744;8.958;2024-01-30T01:40:24;0.80;99.90
3202;DHT22;34843;48.744;8.958;2024-01-30T01:42:51;0.70;99.90
3202;DHT22;34843;48.744;8.958;2024-01-30T01:45:20;0.70;99.90
3202;DHT22;34843;48.744;8.958;2024-01-30T01:47:49;0.70;99.90
3202;DHT22;34843;48.744;8.958;2024-01-30T01:50:16;0.60;99.90
3202;DHT22;34843;48.744;8.958;2024-01-30T01:52:47;0.60;99.90
3202;DHT22;34843;48.744;8.958;2024-01-30T01:55:13;0.50;99.90
3202;DHT22;34843;48.744;8.958;2024-01-30T01:57:40;0.50;99.90
3202;DHT22;34843;48.744;8.958;2024-01-30T02:00:06;0.50;99.90
3202;DHT22;34843;48.744;8.958;2024-01-30T02:02:35;0.50;99.90
3202;DHT22;34843;48.744;8.958;2024-01-30T02:05:01;0.70;99.90
3202;DHT22;34843;48.744;8.958;2024-01-30T02:07:27;0.40;99.90
3202;DHT22;34843;48.744;8.958;2024-01-30T02:09:54;0.40;99.90
3202;DHT22;34843;48.744;8.958;2024-01-30T02:12:19;0.30;99.90
3202;DHT22;34843;48.744;8.958;2024-01-30T02:14:48;0.40;99.90
3202;DHT22;34843;48.744;8.958;2024-01-30T02:17:16;0.30;99.90
3202;DHT22;34843;48.744;8.958;2024-01-30T02:19:42;0.30;99.90
3202;DHT22;34843;48.744;8.958;2024-01-30T02:22:08;0.30;99.90
3202;DHT22;34843;48.744;8.958;2024-01-30T02:24:34;0.30;99.90
3202;DHT22;34843;48.744;8.958;2024-01-30T02:27:00;0.20;99.90
3202;DHT22;34843;48.744;8.958;2024-01-30T02:29:25;0.20;99.90
3202;DHT22;34843;48.744;8.958;2024-01-30T02:31:51;0.20;99.90
3202;DHT22;34843;48.744;8.958;2024-01-30T02:34:18;0.10;99.90
3202;DHT22;34843;48.744;8.958;2024-01-30T02:36:44;0.10;99.90
3202;DHT22;34843;48.744;8.958;2024-01-30T02:39:10;0.10;99.90
3202;DHT22;34843;48.744;8.958;2024-01-30T02:41:36;0.10;99.90
3202;DHT22;34843;48.744;8.958;2024-01-30T02:44:02;0.10;99.90
3202;DHT22;34843;48.744;8.958;2024-01-30T02:46:28;0.10;99.90
3202;DHT22;34843;48.744;8.958;2024-01-30T02:48:54;0.10;99.90
3202;DHT22;34843;48.744;8.958;2024-01-30T02:51:19;0.00;99.90
3202;DHT22;34843;48.744;8.958;2024-01-30T02:53:45;0.00;99.90
3202;DHT22;34843;48.744;8.958;2024-01-30T02:56:10;0.00;99.90
3202;DHT22;34843;48.744;8.958;2024-01-30T02:58:36;-0.10;99.90
3202;DHT22;34843;48.744;8.958;2024-01-30T03:01:02;0.00;99.90
3202;DHT22;34843;48.744;8.958;2024-01-30T03:03:28;-0.10;99.90
3202;DHT22;34843;48.744;8.958;2024-01-30T03:05:54;-0.10;99.90
3202;DHT22;34843;48.744;8.958;2024-01-30T03:08:19;-0.10;99.90
3202;DHT22;34843;48.744;8.958;2024-01-30T03:10:45;-0.10;99.90
3202;DHT22;34843;48.744;8.958;2024-01-30T03:13:10;-0.10;99.90
3202;DHT22;34843;48.744;8.958;2024-01-30T03:15:36;-0.10;99.90
3202;DHT22;34843;48.744;8.958;2024-01-30T03:18:02;-0.10;99.90
3202;DHT22;34843;48.744;8.958;2024-01-30T03:20:29;-0.20;99.90
3202;DHT22;34843;48.744;8.958;2024-01-30T03:22:55;-0.10;99.90
3202;DHT22;34843;48.744;8.958;2024-01-30T03:25:21;-0.20;99.90
3202;DHT22;34843;48.744;8.958;2024-01-30T03:27:46;-0.20;99.90
3202;DHT22;34843;48.744;8.958;2024-01-30T03:30:12;-0.20;99.90
3202;DHT22;34843;48.744;8.958;2024-01-30T03:32:37;-0.20;99.90
3202;DHT22;34843;48.744;8.958;2024-01-30T03:35:03;-0.20;99.90
3202;DHT22;34843;48.744;8.958;2024-01-30T03:37:29;-0.20;99.90
3202;DHT22;34843;48.744;8.958;2024-01-30T03:39:55;-0.30;99.90
3202;DHT22;34843;48.744;8.958;2024-01-30T03:42:20;-0.30;99.90
3202;DHT22;34843;48.744;8.958;2024-01-30T03:44:46;-0.40;99.90
3202;DHT22;34843;48.744;8.958;2024-01-30T03:47:11;-0.40;99.90
3202;DHT22;34843;48.744;8.958;2024-01-30T03:49:37;-0.40;99.90
3202;DHT22;34843;48.744;8.958;2024-01-30T03:52:03;-0.40;99.90
3202;DHT22;34843;48.744;8.958;2024-01-30T03:54:28;-0.40;99.90
3202;DHT22;34843;48.744;8.958;2024-01-30T03:56:54;-0.40;99.90
3202;DHT22;34843;48.744;8.958;2024-01-30T03:59:19;-0.40;99.90
3202;DHT22;34843;48.744;8.958;2024-01-30T04:01:52;-0.50;99.90
3202;DHT22;34843;48.744;8.958;2024-01-30T04:04:18;-0.50;99.90
3202;DHT22;34843;48.744;8.958;2024-01-30T04:06:44;-0.50;99.90
3202;DHT22;34843;48.744;8.958;2024-01-30T04:09:11;-0.50;99.90
3202;DHT22;34843;48.744;8.958;2024-01-30T04:11:36;-0.50;99.90
3202;DHT22;34843;48.744;8.958;2024-01-30T04:14:02;-0.50;99.90
3202;DHT22;34843;48.744;8.958;2024-01-30T04:16:27;-0.50;99.90
3202;DHT22;34843;48.744;8.958;2024-01-30T04:18:53;-0.50;99.90
3202;DHT22;34843;48.744;8.958;2024-01-30T04:21:20;-0.50;99.90
3202;DHT22;34843;48.744;8.958;2024-01-30T04:23:46;-0.50;99.90
3202;DHT22;34843;48.744;8.958;2024-01-30T04:26:12;-0.60;99.90
3202;DHT22;34843;48.744;8.958;2024-01-30T04:28:37;-0.60;99.90
3202;DHT22;34843;48.744;8.958;2024-01-30T04:31:03;-0.60;99.90
3202;DHT22;34843;48.744;8.958;2024-01-30T04:33:28;-0.70;99.90
3202;DHT22;34843;48.744;8.958;2024-01-30T04:35:54;-0.70;99.90
3202;DHT22;34843;48.744;8.958;2024-01-30T04:38:19;-0.80;99.90
3202;DHT22;34843;48.744;8.958;2024-01-30T04:40:45;-0.80;99.90
3202;DHT22;34843;48.744;8.958;2024-01-30T04:43:10;-0.70;99.90
3202;DHT22;34843;48.744;8.958;2024-01-30T04:45:36;-0.70;99.90
3202;DHT22;34843;48.744;8.958;2024-01-30T04:48:01;-0.70;99.90
3202;DHT22;34843;48.744;8.958;2024-01-30T04:50:27;-0.70;99.90
3202;DHT22;34843;48.744;8.958;2024-01-30T04:52:53;-0.80;99.90
3202;DHT22;34843;48.744;8.958;2024-01-30T04:55:18;-0.80;99.90
3202;DHT22;34843;48.744;8.958;2024-01-30T04:57:44;-0.80;99.90
3202;DHT22;34843;48.744;8.958;2024-01-30T05:00:10;-0.80;99.90
3202;DHT22;34843;48.744;8.958;2024-01-30T05:02:35;-0.80;99.90
3202;DHT22;34843;48.744;8.958;2024-01-30T05:05:01;-0.80;99.90
3202;DHT22;34843;48.744;8.958;2024-01-30T05:07:26;-0.80;99.90
3202;DHT22;34843;48.744;8.958;2024-01-30T05:09:52;-0.80;99.90
3202;DHT22;34843;48.744;8.958;2024-01-30T05:12:17;-0.70;99.90
3202;DHT22;34843;48.744;8.958;2024-01-30T05:14:43;-0.70;99.90
3202;DHT22;34843;48.744;8.958;2024-01-30T05:17:08;-0.70;99.90
3202;DHT22;34843;48.744;8.958;2024-01-30T05:19:35;-0.70;99.90
3202;DHT22;34843;48.744;8.958;2024-01-30T05:22:01;-0.70;99.90
3202;DHT22;34843;48.744;8.958;2024-01-30T05:24:26;-0.70;99.90
3202;DHT22;34843;48.744;8.958;2024-01-30T05:26:52;-0.70;99.90
3202;DHT22;34843;48.744;8.958;2024-01-30T05:29:17;-0.70;99.90
3202;DHT22;34843;48.744;8.958;2024-01-30T05:31:43;-0.70;99.90
3202;DHT22;34843;48.744;8.958;2024-01-30T05:34:08;-0.80;99.90
3202;DHT22;34843;48.744;8.958;2024-01-30T05:39:00;-0.80;99.90
3202;DHT22;34843;48.744;8.958;2024-01-30T05:41:26;-0.80;99.90
3202;DHT22;34843;48.744;8.958;2024-01-30T05:43:52;-0.80;99.90
3202;DHT22;34843;48.744;8.958;2024-01-30T05:46:17;-0.80;99.90
3202;DHT22;34843;48.744;8.958;2024-01-30T05:48:43;-0.70;99.90
3202;DHT22;34843;48.744;8.958;2024-01-30T05:51:08;-0.80;99.90
3202;DHT22;34843;48.744;8.958;2024-01-30T05:53:34;-0.90;99.90
3202;DHT22;34843;48.744;8.958;2024-01-30T05:56:03;-0.90;99.90
3202;DHT22;34843;48.744;8.958;2024-01-30T05:58:29;-0.90;99.90
3202;DHT22;34843;48.744;8.958;2024-01-30T06:00:56;-0.80;99.90
3202;DHT22;34843;48.744;8.958;2024-01-30T06:03:22;-0.80;99.90
3202;DHT22;34843;48.744;8.958;2024-01-30T06:05:47;-0.80;99.90
3202;DHT22;34843;48.744;8.958;2024-01-30T06:08:13;-0.80;99.90
3202;DHT22;34843;48.744;8.958;2024-01-30T06:10:38;-0.90;99.90
3202;DHT22;34843;48.744;8.958;2024-01-30T06:13:04;-0.90;99.90
3202;DHT22;34843;48.744;8.958;2024-01-30T06:15:30;-0.80;99.90
3202;DHT22;34843;48.744;8.958;2024-01-30T06:17:55;-0.80;99.90
3202;DHT22;34843;48.744;8.958;2024-01-30T06:20:21;-0.80;99.90
3202;DHT22;34843;48.744;8.958;2024-01-30T06:22:46;-0.80;99.90
3202;DHT22;34843;48.744;8.958;2024-01-30T06:25:12;-0.80;99.90
3202;DHT22;34843;48.744;8.958;2024-01-30T06:27:38;-0.80;99.90
3202;DHT22;34843;48.744;8.958;2024-01-30T06:30:04;-0.80;99.90
3202;DHT22;34843;48.744;8.958;2024-01-30T06:32:30;-0.80;99.90
3202;DHT22;34843;48.744;8.958;2024-01-30T06:35:00;-0.80;99.90
3202;DHT22;34843;48.744;8.958;2024-01-30T06:37:25;-0.80;99.90
3202;DHT22;34843;48.744;8.958;2024-01-30T06:39:51;-0.80;99.90
3202;DHT22;34843;48.744;8.958;2024-01-30T06:42:18;-0.80;99.90
3202;DHT22;34843;48.744;8.958;2024-01-30T06:44:43;-0.80;99.90
3202;DHT22;34843;48.744;8.958;2024-01-30T06:47:09;-0.80;99.90
3202;DHT22;34843;48.744;8.958;2024-01-30T06:49:35;-0.80;99.90
3202;DHT22;34843;48.744;8.958;2024-01-30T06:52:04;-0.80;99.90
3202;DHT22;34843;48.744;8.958;2024-01-30T06:54:30;-0.80;99.90
3202;DHT22;34843;48.744;8.958;2024-01-30T06:56:56;-0.80;99.90
3202;DHT22;34843;48.744;8.958;2024-01-30T06:59:21;-0.70;99.90
3202;DHT22;34843;48.744;8.958;2024-01-30T07:01:47;-0.80;99.90
3202;DHT22;34843;48.744;8.958;2024-01-30T07:04:13;-0.80;99.90
3202;DHT22;34843;48.744;8.958;2024-01-30T07:06:38;-0.80;99.90
3202;DHT22;34843;48.744;8.958;2024-01-30T07:09:03;-0.80;99.90
3202;DHT22;34843;48.744;8.958;2024-01-30T07:11:30;-0.70;99.90
3202;DHT22;34843;48.744;8.958;2024-01-30T07:13:56;-0.60;99.90
3202;DHT22;34843;48.744;8.958;2024-01-30T07:16:21;-0.60;99.90
3202;DHT22;34843;48.744;8.958;2024-01-30T07:18:47;-0.60;99.90
3202;DHT22;34843;48.744;8.958;2024-01-30T07:21:13;-0.60;99.90
3202;DHT22;34843;48.744;8.958;2024-01-30T07:23:38;-0.60;99.90
3202;DHT22;34843;48.744;8.958;2024-01-30T07:26:06;-0.60;99.90
3202;DHT22;34843;48.744;8.958;2024-01-30T07:28:32;-0.60;99.90
3202;DHT22;34843;48.744;8.958;2024-01-30T07:30:58;-0.60;99.90
3202;DHT22;34843;48.744;8.958;2024-01-30T07:33:23;-0.50;99.90
3202;DHT22;34843;48.744;8.958;2024-01-30T07:35:49;-0.50;99.90
3202;DHT22;34843;48.744;8.958;2024-01-30T07:38:14;-0.50;99.90
3202;DHT22;34843;48.744;8.958;2024-01-30T07:40:40;-0.40;99.90
3202;DHT22;34843;48.744;8.958;2024-01-30T07:43:06;-0.30;99.90
3202;DHT22;34843;48.744;8.958;2024-01-30T07:45:32;-0.20;99.90
3202;DHT22;34843;48.744;8.958;2024-01-30T07:48:00;-0.10;99.90
3202;DHT22;34843;48.744;8.958;2024-01-30T07:50:26;-0.10;99.90
3202;DHT22;34843;48.744;8.958;2024-01-30T07:52:52;0.10;99.90
3202;DHT22;34843;48.744;8.958;2024-01-30T07:55:23;0.20;99.90
3202;DHT22;34843;48.744;8.958;2024-01-30T07:57:55;0.30;99.90
3202;DHT22;34843;48.744;8.958;2024-01-30T08:00:21;0.50;99.90
3202;DHT22;34843;48.744;8.958;2024-01-30T08:02:47;0.70;99.90
3202;DHT22;34843;48.744;8.958;2024-01-30T08:05:13;0.90;99.90
3202;DHT22;34843;48.744;8.958;2024-01-30T08:07:41;0.90;99.90
3202;DHT22;34843;48.744;8.958;2024-01-30T08:10:08;1.00;99.90
3202;DHT22;34843;48.744;8.958;2024-01-30T08:12:33;1.10;99.90
3202;DHT22;34843;48.744;8.958;2024-01-30T08:14:59;1.30;99.90
3202;DHT22;34843;48.744;8.958;2024-01-30T08:17:24;1.40;99.90
3202;DHT22;34843;48.744;8.958;2024-01-30T08:19:50;1.50;99.90
3202;DHT22;34843;48.744;8.958;2024-01-30T08:22:15;1.70;99.90
3202;DHT22;34843;48.744;8.958;2024-01-30T08:24:41;1.90;99.90
3202;DHT22;34843;48.744;8.958;2024-01-30T08:27:07;2.00;99.90
3202;DHT22;34843;48.744;8.958;2024-01-30T08:29:35;2.20;99.90
3202;DHT22;34843;48.744;8.958;2024-01-30T08:34:27;2.30;99.90
3202;DHT22;34843;48.744;8.958;2024-01-30T08:36:52;2.30;99.90
3202;DHT22;34843;48.744;8.958;2024-01-30T08:39:18;2.50;99.90
3202;DHT22;34843;48.744;8.958;2024-01-30T08:41:44;2.60;99.90
3202;DHT22;34843;48.744;8.958;2024-01-30T08:44:10;2.70;99.90
3202;DHT22;34843;48.744;8.958;2024-01-30T08:46:37;2.80;99.90
3202;DHT22;34843;48.744;8.958;2024-01-30T08:49:03;2.90;99.90
3202;DHT22;34843;48.744;8.958;2024-01-30T08:51:30;3.00;99.90
3202;DHT22;34843;48.744;8.958;2024-01-30T08:53:55;3.30;99.90
3202;DHT22;34843;48.744;8.958;2024-01-30T08:56:21;3.40;99.90
3202;DHT22;34843;48.744;8.958;2024-01-30T08:58:46;3.50;99.90
3202;DHT22;34843;48.744;8.958;2024-01-30T09:01:12;3.70;99.90
3202;DHT22;34843;48.744;8.958;2024-01-30T09:03:37;4.10;99.90
3202;DHT22;34843;48.744;8.958;2024-01-30T09:06:11;4.10;99.90
3202;DHT22;34843;48.744;8.958;2024-01-30T09:08:37;4.30;99.90
3202;DHT22;34843;48.744;8.958;2024-01-30T09:11:12;4.50;99.90
3202;DHT22;34843;48.744;8.958;2024-01-30T09:13:38;4.90;99.90
3202;DHT22;34843;48.744;8.958;2024-01-30T09:16:04;4.90;99.90
3202;DHT22;34843;48.744;8.958;2024-01-30T09:18:29;5.10;99.90
3202;DHT22;34843;48.744;8.958;2024-01-30T09:20:55;5.30;99.90
3202;DHT22;34843;48.744;8.958;2024-01-30T09:23:20;5.50;99.90
3202;DHT22;34843;48.744;8.958;2024-01-30T09:25:47;5.70;99.90
3202;DHT22;34843;48.744;8.958;2024-01-30T09:28:12;5.90;99.90
3202;DHT22;34843;48.744;8.958;2024-01-30T09:30:38;6.20;99.90
3202;DHT22;34843;48.744;8.958;2024-01-30T09:33:03;6.30;99.90
3202;DHT22;34843;48.744;8.958;2024-01-30T09:35:29;6.60;99.90
3202;DHT22;34843;48.744;8.958;2024-01-30T09:37:55;6.80;99.90
3202;DHT22;34843;48.744;8.958;2024-01-30T09:40:22;7.00;99.90
3202;DHT22;34843;48.744;8.958;2024-01-30T09:42:47;7.20;99.90
3202;DHT22;34843;48.744;8.958;2024-01-30T09:45:15;7.40;99.90
3202;DHT22;34843;48.744;8.958;2024-01-30T09:47:44;7.60;99.90
3202;DHT22;34843;48.744;8.958;2024-01-30T09:50:10;7.70;99.90
3202;DHT22;34843;48.744;8.958;2024-01-30T09:52:36;7.90;99.90
3202;DHT22;34843;48.744;8.958;2024-01-30T09:55:03;8.10;99.90
3202;DHT22;34843;48.744;8.958;2024-01-30T09:57:29;8.30;99.90
3202;DHT22;34843;48.744;8.958;2024-01-30T09:59:54;8.50;99.90
3202;DHT22;34843;48.744;8.958;2024-01-30T10:02:20;8.80;99.90
3202;DHT22;34843;48.744;8.958;2024-01-30T10:04:50;8.90;99.90
3202;DHT22;34843;48.744;8.958;2024-01-30T10:07:19;8.80;99.90
3202;DHT22;34843;48.744;8.958;2024-01-30T10:09:45;8.60;99.90
3202;DHT22;34843;48.744;8.958;2024-01-30T10:12:11;8.40;99.90
3202;DHT22;34843;48.744;8.958;2024-01-30T10:14:41;8.40;99.90
3202;DHT22;34843;48.744;8.958;2024-01-30T10:17:11;8.40;99.90
3202;DHT22;34843;48.744;8.958;2024-01-30T10:19:37;8.50;99.90
3202;DHT22;34843;48.744;8.958;2024-01-30T10:22:04;8.60;99.90
3202;DHT22;34843;48.744;8.958;2024-01-30T10:24:29;8.60;99.90
3202;DHT22;34843;48.744;8.958;2024-01-30T10:26:55;8.60;99.90
3202;DHT22;34843;48.744;8.958;2024-01-30T10:29:20;8.50;99.90
3202;DHT22;34843;48.744;8.958;2024-01-30T10:31:46;8.60;99.90
3202;DHT22;34843;48.744;8.958;2024-01-30T10:34:12;8.80;99.90
3202;DHT22;34843;48.744;8.958;2024-01-30T10:36:43;8.90;99.90
3202;DHT22;34843;48.744;8.958;2024-01-30T10:39:12;8.80;99.90
3202;DHT22;34843;48.744;8.958;2024-01-30T10:41:43;9.00;99.90
3202;DHT22;34843;48.744;8.958;2024-01-30T10:44:10;9.10;99.90
3202;DHT22;34843;48.744;8.958;2024-01-30T10:46:42;9.10;99.90
3202;DHT22;34843;48.744;8.958;2024-01-30T10:49:11;9.10;99.90
3202;DHT22;34843;48.744;8.958;2024-01-30T10:51:38;9.10;99.90
3202;DHT22;34843;48.744;8.958;2024-01-30T10:54:05;9.30;99.90
3202;DHT22;34843;48.744;8.958;2024-01-30T10:56:32;9.30;99.90
3202;DHT22;34843;48.744;8.958;2024-01-30T10:58:58;9.60;99.90
3202;DHT22;34843;48.744;8.958;2024-01-30T11:01:25;9.70;99.90
3202;DHT22;34843;48.744;8.958;2024-01-30T11:03:51;10.00;99.90
3202;DHT22;34843;48.744;8.958;2024-01-30T11:06:17;10.00;99.90
3202;DHT22;34843;48.744;8.958;2024-01-30T11:08:46;10.00;99.90
3202;DHT22;34843;48.744;8.958;2024-01-30T11:11:12;10.00;99.90
3202;DHT22;34843;48.744;8.958;2024-01-30T11:13:37;10.20;99.90
3202;DHT22;34843;48.744;8.958;2024-01-30T11:16:04;10.20;99.90
3202;DHT22;34843;48.744;8.958;2024-01-30T11:18:31;10.20;99.90
3202;DHT22;34843;48.744;8.958;2024-01-30T11:20:58;10.30;99.90
3202;DHT22;34843;48.744;8.958;2024-01-30T11:23:25;10.40;99.90
3202;DHT22;34843;48.744;8.958;2024-01-30T11:25:52;10.40;99.90
3202;DHT22;34843;48.744;8.958;2024-01-30T11:28:18;10.50;99.90
3202;DHT22;34843;48.744;8.958;2024-01-30T11:30:44;10.60;99.90
3202;DHT22;34843;48.744;8.958;2024-01-30T11:33:14;10.60;99.90
3202;DHT22;34843;48.744;8.958;2024-01-30T11:35:43;10.70;99.90
3202;DHT22;34843;48.744;8.958;2024-01-30T11:38:14;10.80;99.90
3202;DHT22;34843;48.744;8.958;2024-01-30T11:40:40;11.00;99.90
3202;DHT22;34843;48.744;8.958;2024-01-30T11:43:07;11.20;99.90
3202;DHT22;34843;48.744;8.958;2024-01-30T11:45:35;11.40;99.90
3202;DHT22;34843;48.744;8.958;2024-01-30T11:48:00;11.40;99.90
3202;DHT22;34843;48.744;8.958;2024-01-30T11:50:29;11.50;99.90
3202;DHT22;34843;48.744;8.958;2024-01-30T11:52:55;11.50;99.90
3202;DHT22;34843;48.744;8.958;2024-01-30T11:55:20;9.20;99.90
3202;DHT22;34843;48.744;8.958;2024-01-30T11:57:46;11.40;99.90
3202;DHT22;34843;48.744;8.958;2024-01-30T12:00:15;11.40;99.90
3202;DHT22;34843;48.744;8.958;2024-01-30T12:02:42;11.50;99.90
3202;DHT22;34843;48.744;8.958;2024-01-30T12:05:08;11.50;99.90
3202;DHT22;34843;48.744;8.958;2024-01-30T12:07:35;11.50;99.90
3202;DHT22;34843;48.744;8.958;2024-01-30T12:10:01;11.50;99.90
3202;DHT22;34843;48.744;8.958;2024-01-30T12:12:28;12.20;99.90
3202;DHT22;34843;48.744;8.958;2024-01-30T12:14:54;11.60;99.90
3202;DHT22;34843;48.744;8.958;2024-01-30T12:17:33;11.80;99.90
3202;DHT22;34843;48.744;8.958;2024-01-30T12:20:08;11.80;99.90
3202;DHT22;34843;48.744;8.958;2024-01-30T12:25:17;12.10;99.90
3202;DHT22;34843;48.744;8.958;2024-01-30T12:27:45;12.20;99.90
3202;DHT22;34843;48.744;8.958;2024-01-30T12:30:12;12.30;99.90
3202;DHT22;34843;48.744;8.958;2024-01-30T12:32:42;12.20;99.90
3202;DHT22;34843;48.744;8.958;2024-01-30T12:35:14;12.20;99.90
3202;DHT22;34843;48.744;8.958;2024-01-30T12:37:41;12.20;99.90
3202;DHT22;34843;48.744;8.958;2024-01-30T12:40:08;12.30;99.90
3202;DHT22;34843;48.744;8.958;2024-01-30T12:45:05;12.40;99.90
3202;DHT22;34843;48.744;8.958;2024-01-30T12:47:31;12.50;99.90
3202;DHT22;34843;48.744;8.958;2024-01-30T12:49:57;12.50;99.90
3202;DHT22;34843;48.744;8.958;2024-01-30T12:52:22;12.50;99.90
3202;DHT22;34843;48.744;8.958;2024-01-30T12:54:49;12.50;99.90
3202;DHT22;34843;48.744;8.958;2024-01-30T12:57:15;12.40;99.90
3202;DHT22;34843;48.744;8.958;2024-01-30T12:59:41;12.50;99.90
3202;DHT22;34843;48.744;8.958;2024-01-30T13:02:07;12.60;99.90
3202;DHT22;34843;48.744;8.958;2024-01-30T13:04:32;12.70;99.90
3202;DHT22;34843;48.744;8.958;2024-01-30T13:06:58;12.90;99.90
3202;DHT22;34843;48.744;8.958;2024-01-30T13:09:26;13.00;99.90
3202;DHT22;34843;48.744;8.958;2024-01-30T13:11:51;13.20;99.90
3202;DHT22;34843;48.744;8.958;2024-01-30T13:14:17;13.40;99.90
3202;DHT22;34843;48.744;8.958;2024-01-30T13:16:43;13.60;99.90
3202;DHT22;34843;48.744;8.958;2024-01-30T13:19:09;13.60;99.90
3202;DHT22;34843;48.744;8.958;2024-01-30T13:21:34;13.50;99.90
3202;DHT22;34843;48.744;8.958;2024-01-30T13:26:26;13.40;99.90
3202;DHT22;34843;48.744;8.958;2024-01-30T13:28:51;13.40;99.90
3202;DHT22;34843;48.744;8.958;2024-01-30T13:31:17;15.70;99.90
3202;DHT22;34843;48.744;8.958;2024-01-30T13:33:43;13.40;99.90
3202;DHT22;34843;48.744;8.958;2024-01-30T13:36:09;13.30;99.90
3202;DHT22;34843;48.744;8.958;2024-01-30T13:38:35;13.20;99.90
3202;DHT22;34843;48.744;8.958;2024-01-30T13:41:01;13.10;99.90
3202;DHT22;34843;48.744;8.958;2024-01-30T13:45:52;13.10;99.90
3202;DHT22;34843;48.744;8.958;2024-01-30T13:48:18;13.10;99.90
3202;DHT22;34843;48.744;8.958;2024-01-30T13:50:44;13.10;99.90
3202;DHT22;34843;48.744;8.958;2024-01-30T13:53:09;13.10;99.90
3202;DHT22;34843;48.744;8.958;2024-01-30T13:55:35;13.00;99.90
3202;DHT22;34843;48.744;8.958;2024-01-30T13:58:00;13.00;99.90
3202;DHT22;34843;48.744;8.958;2024-01-30T14:00:29;12.90;99.90
3202;DHT22;34843;48.744;8.958;2024-01-30T14:02:54;13.10;99.90
3202;DHT22;34843;48.744;8.958;2024-01-30T14:05:20;13.20;99.90
3202;DHT22;34843;48.744;8.958;2024-01-30T14:07:47;13.30;99.90
3202;DHT22;34843;48.744;8.958;2024-01-30T14:10:12;13.30;99.90
3202;DHT22;34843;48.744;8.958;2024-01-30T14:12:38;13.40;99.90
3202;DHT22;34843;48.744;8.958;2024-01-30T14:15:04;13.30;99.90
3202;DHT22;34843;48.744;8.958;2024-01-30T14:17:29;13.30;99.90
3202;DHT22;34843;48.744;8.958;2024-01-30T14:19:55;13.40;99.90
3202;DHT22;34843;48.744;8.958;2024-01-30T14:22:21;13.40;99.90
3202;DHT22;34843;48.744;8.958;2024-01-30T14:24:46;13.50;99.90
3202;DHT22;34843;48.744;8.958;2024-01-30T14:27:12;13.50;99.90
3202;DHT22;34843;48.744;8.958;2024-01-30T14:29:38;13.50;99.90
3202;DHT22;34843;48.744;8.958;2024-01-30T14:32:04;13.60;99.90
3202;DHT22;34843;48.744;8.958;2024-01-30T14:34:29;13.60;99.90
3202;DHT22;34843;48.744;8.958;2024-01-30T14:36:55;13.60;99.90
3202;DHT22;34843;48.744;8.958;2024-01-30T14:39:20;13.60;99.90
3202;DHT22;34843;48.744;8.958;2024-01-30T14:41:46;13.60;99.90
3202;DHT22;34843;48.744;8.958;2024-01-30T14:44:12;13.90;99.90
3202;DHT22;34843;48.744;8.958;2024-01-30T14:46:37;13.40;99.90
3202;DHT22;34843;48.744;8.958;2024-01-30T14:51:31;13.40;99.90
3202;DHT22;34843;48.744;8.958;2024-01-30T14:53:56;13.30;99.90
3202;DHT22;34843;48.744;8.958;2024-01-30T14:56:22;13.10;99.90
3202;DHT22;34843;48.744;8.958;2024-01-30T14:58:48;13.10;99.90
3202;DHT22;34843;48.744;8.958;2024-01-30T15:01:14;12.90;99.90
3202;DHT22;34843;48.744;8.958;2024-01-30T15:03:39;12.70;99.90
3202;DHT22;34843;48.744;8.958;2024-01-30T15:06:05;12.40;99.90
3202;DHT22;34843;48.744;8.958;2024-01-30T15:08:31;12.20;99.90
3202;DHT22;34843;48.744;8.958;2024-01-30T15:10:58;12.10;99.90
3202;DHT22;34843;48.744;8.958;2024-01-30T15:13:23;12.50;99.90
3202;DHT22;34843;48.744;8.958;2024-01-30T15:15:49;12.00;99.90
3202;DHT22;34843;48.744;8.958;2024-01-30T15:18:14;11.90;99.90
3202;DHT22;34843;48.744;8.958;2024-01-30T15:20:40;11.90;99.90
3202;DHT22;34843;48.744;8.958;2024-01-30T15:23:05;11.80;99.90
3202;DHT22;34843;48.744;8.958;2024-01-30T15:25:31;11.70;99.90
3202;DHT22;34843;48.744;8.958;2024-01-30T15:27:57;11.50;99.90
3202;DHT22;34843;48.744;8.958;2024-01-30T15:30:22;11.50;99.90
3202;DHT22;34843;48.744;8.958;2024-01-30T15:32:48;11.50;99.90
3202;DHT22;34843;48.744;8.958;2024-01-30T15:35:14;11.50;99.90
3202;DHT22;34843;48.744;8.958;2024-01-30T15:37:39;11.30;99.90
3202;DHT22;34843;48.744;8.958;2024-01-30T15:40:05;11.30;99.90
3202;DHT22;34843;48.744;8.958;2024-01-30T15:42:34;11.30;99.90
3202;DHT22;34843;48.744;8.958;2024-01-30T15:47:26;10.90;99.90
3202;DHT22;34843;48.744;8.958;2024-01-30T15:49:52;10.80;99.90
3202;DHT22;34843;48.744;8.958;2024-01-30T15:52:17;10.70;99.90
3202;DHT22;34843;48.744;8.958;2024-01-30T15:54:46;10.60;99.90
3202;DHT22;34843;48.744;8.958;2024-01-30T15:57:12;10.50;99.90
3202;DHT22;34843;48.744;8.958;2024-01-30T15:59:38;10.60;99.90
3202;DHT22;34843;48.744;8.958;2024-01-30T16:02:03;10.40;99.90
3202;DHT22;34843;48.744;8.958;2024-01-30T16:04:29;10.30;99.90